Time;durP1;ratioP1;P1;durP2;ratioP2;P2;SDS_P1;SDS_P2;PMS_P1;PMS_P2;Temp;Humidity;BMP_temperature;BMP_pressure;BME280_temperature;BME280_humidity;BME280_pressure;Samples;Min_cycle;Max_cycle;Signal;HPM_P1;HPM_P2
2022/12/05 00:01:46;;;;;;;;;;;;;;;19.03;43.35;101236.00;5133303;27;20007;-43
2022/12/05 00:04:12;;;;;;;;;;;;;;;19.03;43.28;101240.69;5133354;27;20289;-42
2022/12/05 00:06:39;;;;;;;;;;;;;;;19.03;43.17;101237.94;5116689;27;19931;-44
2022/12/05 00:09:05;;;;;;;;;;;;;;;19.04;43.33;101236.81;5115744;27;19923;-41
2022/12/05 00:11:31;;;;;;;;;;;;;;;19.03;43.14;101233.22;5115678;27;19937;-42
2022/12/05 00:13:57;;;;;;;;;;;;;;;19.02;43.22;101230.75;5115968;28;19962;-42
2022/12/05 00:16:24;;;;;;;;;;;;;;;19.03;43.13;101233.22;5142148;27;20360;-41
2022/12/05 00:18:50;;;;;;;;;;;;;;;19.03;43.36;101244.28;5141066;27;20388;-43
2022/12/05 00:21:17;;;;;;;;;;;;;;;19.03;43.33;101235.16;5116929;28;19928;-43
2022/12/05 00:23:43;;;;;;;;;;;;;;;19.03;43.04;101240.69;5135363;27;20395;-44
2022/12/05 00:26:08;;;;;;;;;;;;;;;19.02;43.20;101248.13;5119583;27;19930;-44
2022/12/05 00:28:34;;;;;;;;;;;;;;;19.03;43.14;101251.72;5139955;27;20302;-41
2022/12/05 00:31:01;;;;;;;;;;;;;;;19.04;43.13;101250.63;5118262;27;19923;-42
2022/12/05 00:33:27;;;;;;;;;;;;;;;19.03;43.29;101249.78;5118423;28;19967;-43
2022/12/05 00:35:52;;;;;;;;;;;;;;;19.03;43.34;101251.72;5138028;27;19923;-43
2022/12/05 00:38:18;;;;;;;;;;;;;;;19.02;43.09;101248.13;5137370;27;19927;-41
2022/12/05 00:40:43;;;;;;;;;;;;;;;19.03;43.37;101244.28;5137956;27;19923;-41
2022/12/05 00:43:09;;;;;;;;;;;;;;;19.03;43.29;101247.03;5135982;27;19923;-41
2022/12/05 00:45:35;;;;;;;;;;;;;;;19.03;43.27;101248.97;5140003;27;20300;-41
2022/12/05 00:48:01;;;;;;;;;;;;;;;19.03;43.07;101238.75;5137731;27;19936;-45
2022/12/05 00:50:26;;;;;;;;;;;;;;;19.03;42.99;101243.44;5124017;27;20042;-42
2022/12/05 00:52:52;;;;;;;;;;;;;;;19.02;43.29;101239.03;5140847;27;19942;-44
2022/12/05 00:55:17;;;;;;;;;;;;;;;19.02;43.13;101239.84;5138736;27;20305;-43
2022/12/05 00:57:43;;;;;;;;;;;;;;;19.03;43.12;101244.28;5145816;27;19930;-41
2022/12/05 01:00:09;;;;;;;;;;;;;;;19.02;43.32;101247.31;5134865;27;19946;-41
2022/12/05 01:02:34;;;;;;;;;;;;;;;19.03;43.11;101240.69;5139464;27;20279;-42
2022/12/05 01:05:00;;;;;;;;;;;;;;;19.03;43.28;101240.69;5138094;27;20393;-42
2022/12/05 01:07:25;;;;;;;;;;;;;;;19.02;43.28;101239.03;5143716;27;19974;-43
2022/12/05 01:09:51;;;;;;;;;;;;;;;19.03;43.22;101240.69;5135421;27;20301;-44
2022/12/05 01:12:16;;;;;;;;;;;;;;;19.02;42.94;101225.22;5137509;27;19930;-42
2022/12/05 01:14:42;;;;;;;;;;;;;;;19.03;43.13;101232.41;5136315;27;20085;-41
2022/12/05 01:17:08;;;;;;;;;;;;;;;19.03;43.25;101236.00;5134684;27;20311;-44
2022/12/05 01:19:34;;;;;;;;;;;;;;;19.01;43.25;101232.69;5115164;27;19938;-42
2022/12/05 01:21:59;;;;;;;;;;;;;;;19.03;43.16;101235.16;5137590;27;19923;-44
2022/12/05 01:24:25;;;;;;;;;;;;;;;19.02;43.00;101237.09;5116884;27;20464;-42
2022/12/05 01:26:51;;;;;;;;;;;;;;;19.02;43.07;101226.06;5137315;27;19923;-42
2022/12/05 01:29:17;;;;;;;;;;;;;;;19.02;43.29;101233.50;5116090;28;19927;-42
2022/12/05 01:31:43;;;;;;;;;;;;;;;19.01;43.03;101232.69;5133553;27;19923;-41
2022/12/05 01:34:10;;;;;;;;;;;;;;;19.02;43.14;101239.84;5148042;27;19923;-43
2022/12/05 01:36:35;;;;;;;;;;;;;;;19.02;43.28;101244.56;5135852;27;20011;-44
2022/12/05 01:39:01;;;;;;;;;;;;;;;19.03;43.25;101240.69;5120961;27;19923;-43
2022/12/05 01:41:29;;;;;;;;;;;;;;;19.03;43.29;101246.22;5145398;27;19958;-42
2022/12/05 01:43:59;;;;;;;;;;;;;;;19.03;43.24;101249.78;5137346;27;19966;-41
2022/12/05 01:46:25;;;;;;;;;;;;;;;19.02;43.26;101250.06;5116123;28;20371;-41
2022/12/05 01:48:52;;;;;;;;;;;;;;;19.02;43.07;101255.59;5118398;27;19923;-41
2022/12/05 01:51:17;;;;;;;;;;;;;;;19.01;43.17;101252.00;5138429;27;19972;-42
2022/12/05 01:53:43;;;;;;;;;;;;;;;19.02;43.12;101258.34;5138457;27;19930;-42
2022/12/05 01:56:08;;;;;;;;;;;;;;;19.01;43.05;101252.00;5123884;27;19923;-42
2022/12/05 01:58:34;;;;;;;;;;;;;;;19.02;42.97;101247.31;5141264;27;19923;-42
2022/12/05 02:01:00;;;;;;;;;;;;;;;19.01;43.12;101249.25;5137792;27;19965;-42
2022/12/05 02:03:26;;;;;;;;;;;;;;;19.02;43.20;101252.84;5137202;27;19931;-41
2022/12/05 02:05:51;;;;;;;;;;;;;;;19.02;43.21;101247.31;5122181;27;20339;-42
2022/12/05 02:08:17;;;;;;;;;;;;;;;19.02;43.28;101255.59;5140009;27;20298;-41
2022/12/05 02:10:50;;;;;;;;;;;;;;;19.02;43.16;101252.84;5138180;27;19923;-41
2022/12/05 02:15:53;;;;;;;;;;;;;;;19.01;43.09;101253.94;5169064;27;19925;-47
2022/12/05 02:18:33;;;;;;;;;;;;;;;19.01;43.12;101257.53;5157014;27;20370;-41
2022/12/05 02:21:05;;;;;;;;;;;;;;;19.02;43.11;101252.84;5151888;27;20142;-42
2022/12/05 02:23:46;;;;;;;;;;;;;;;19.02;43.12;101264.69;5133620;27;19931;-41
2022/12/05 02:26:32;;;;;;;;;;;;;;;19.02;43.28;101253.66;5133966;27;19970;-41
2022/12/05 02:29:17;;;;;;;;;;;;;;;19.01;43.23;101252.00;5133786;27;20012;-44
2022/12/05 02:31:46;;;;;;;;;;;;;;;19.01;43.30;101254.78;5136290;27;20084;-42
2022/12/05 02:34:15;;;;;;;;;;;;;;;19.01;43.25;101252.00;5135908;27;20475;-41
2022/12/05 02:36:43;;;;;;;;;;;;;;;19.02;43.19;101248.13;5147283;27;19970;-43
2022/12/05 02:39:17;;;;;;;;;;;;;;;19.02;43.22;101255.59;5132601;27;20370;-41
2022/12/05 02:41:49;;;;;;;;;;;;;;;19.02;43.30;101250.06;5147543;27;19967;-44
2022/12/05 02:44:19;;;;;;;;;;;;;;;19.02;43.25;101253.66;5147639;27;20352;-42
2022/12/05 02:46:45;;;;;;;;;;;;;;;19.02;43.14;101255.59;5147732;27;19966;-42
2022/12/05 02:49:13;;;;;;;;;;;;;;;19.01;43.20;101252.00;5149763;27;19930;-43
2022/12/05 02:51:40;;;;;;;;;;;;;;;19.01;42.98;101248.44;5148381;27;19974;-41
2022/12/05 02:54:07;;;;;;;;;;;;;;;19.01;43.25;101251.19;5149511;27;19977;-42
2022/12/05 02:56:32;;;;;;;;;;;;;;;19.01;43.26;101257.53;5147103;27;20196;-41
2022/12/05 02:58:58;;;;;;;;;;;;;;;19.02;43.11;101252.84;5149685;27;20302;-42
2022/12/05 03:01:26;;;;;;;;;;;;;;;19.01;42.91;101248.44;5146680;27;19930;-42
2022/12/05 03:03:51;;;;;;;;;;;;;;;19.02;43.19;101256.41;5134316;27;20333;-42
2022/12/05 03:06:19;;;;;;;;;;;;;;;19.01;42.95;101263.06;5109286;27;20418;-42
2022/12/05 03:08:46;;;;;;;;;;;;;;;19.01;43.11;101253.94;5129882;27;20031;-41
2022/12/05 03:11:12;;;;;;;;;;;;;;;19.01;43.15;101259.47;5109380;27;20039;-42
2022/12/05 03:13:39;;;;;;;;;;;;;;;19.01;43.23;101259.47;5126655;27;20249;-41
2022/12/05 03:16:07;;;;;;;;;;;;;;;19.02;43.13;101266.63;5133240;27;19923;-44
2022/12/05 03:18:37;;;;;;;;;;;;;;;19.02;43.26;101267.47;5135900;27;20371;-44
2022/12/05 03:21:09;;;;;;;;;;;;;;;19.01;43.20;101274.09;5127042;27;20019;-44
2022/12/05 03:23:37;;;;;;;;;;;;;;;19.02;43.04;101272.16;5130923;27;20414;-42
2022/12/05 03:26:16;;;;;;;;;;;;;;;19.01;43.30;101276.84;5122635;27;19981;-42
2022/12/05 03:28:47;;;;;;;;;;;;;;;19.01;43.00;101274.09;5099234;28;19959;-41
2022/12/05 03:31:13;;;;;;;;;;;;;;;19.01;43.14;101276.84;5095605;28;20342;-41
2022/12/05 03:33:40;;;;;;;;;;;;;;;19.01;42.95;101273.25;5118388;28;20371;-42
2022/12/05 03:36:14;;;;;;;;;;;;;;;19.01;42.95;101270.50;5121858;28;19966;-42
2022/12/05 03:38:44;;;;;;;;;;;;;;;19.01;43.28;101273.25;5098535;28;19970;-46
2022/12/05 03:41:27;;;;;;;;;;;;;;;19.00;43.25;101271.63;5111720;28;19978;-42
2022/12/05 03:44:00;;;;;;;;;;;;;;;19.01;43.14;101268.56;5114598;28;20379;-43
2022/12/05 03:46:28;;;;;;;;;;;;;;;19.01;43.05;101264.97;5100232;28;19962;-42
2022/12/05 03:49:03;;;;;;;;;;;;;;;19.00;42.97;101264.16;5115153;28;19981;-44
2022/12/05 03:51:30;;;;;;;;;;;;;;;19.01;42.92;101267.75;5114665;28;19974;-41
2022/12/05 03:53:57;;;;;;;;;;;;;;;19.01;43.23;101274.09;5114829;28;20411;-44
2022/12/05 03:56:24;;;;;;;;;;;;;;;19.01;43.06;101268.56;5112936;28;19963;-43
2022/12/05 03:58:53;;;;;;;;;;;;;;;19.01;43.13;101270.50;5118731;28;19924;-42
2022/12/05 04:01:19;;;;;;;;;;;;;;;19.02;43.18;101280.44;5093248;28;19930;-41
2022/12/05 04:03:49;;;;;;;;;;;;;;;19.01;43.04;101267.75;5113985;28;19927;-42
2022/12/05 04:06:18;;;;;;;;;;;;;;;19.01;43.14;101276.03;5119060;28;19930;-43
2022/12/05 04:08:46;;;;;;;;;;;;;;;19.01;43.30;101276.84;5114687;28;19951;-41
2022/12/05 04:11:14;;;;;;;;;;;;;;;19.02;42.86;101274.91;5113951;28;20351;-42
2022/12/05 04:13:43;;;;;;;;;;;;;;;19.01;43.16;101281.53;5095273;28;20038;-42
2022/12/05 04:18:57;;;;;;;;;;;;;;;19.00;42.92;101283.47;5102276;28;19981;-41
2022/12/05 04:21:39;;;;;;;;;;;;;;;19.00;42.99;101280.72;5095505;28;20038;-44
2022/12/05 04:26:54;;;;;;;;;;;;;;;19.01;42.94;101284.31;5097824;28;19963;-43
2022/12/05 04:29:24;;;;;;;;;;;;;;;19.00;43.05;101277.13;5114785;28;20445;-43
2022/12/05 04:31:51;;;;;;;;;;;;;;;18.99;43.23;101281.78;5094815;28;19970;-42
2022/12/05 04:34:16;;;;;;;;;;;;;;;19.00;43.33;101280.72;5095650;28;19987;-42
2022/12/05 04:36:46;;;;;;;;;;;;;;;19.00;43.01;101280.72;5114347;28;19954;-42
2022/12/05 04:39:14;;;;;;;;;;;;;;;19.01;42.88;101292.59;5098947;28;19978;-46
2022/12/05 04:41:51;;;;;;;;;;;;;;;19.00;42.95;101291.75;5094804;28;19932;-42
2022/12/05 04:44:17;;;;;;;;;;;;;;;19.00;42.91;101291.75;5095260;28;19951;-41
2022/12/05 04:46:43;;;;;;;;;;;;;;;19.00;43.01;101288.19;5109921;28;19975;-43
2022/12/05 04:49:09;;;;;;;;;;;;;;;19.00;42.92;101289.00;5111407;28;20034;-42
2022/12/05 04:51:35;;;;;;;;;;;;;;;19.01;43.05;101298.09;5090393;28;19924;-41
2022/12/05 04:54:02;;;;;;;;;;;;;;;19.00;43.25;101300.03;5111858;28;20027;-43
2022/12/05 04:56:28;;;;;;;;;;;;;;;19.00;42.91;101296.47;5110523;28;19970;-43
2022/12/05 04:58:54;;;;;;;;;;;;;;;19.01;43.16;101296.16;5113918;28;19929;-41
2022/12/05 05:01:28;;;;;;;;;;;;;;;19.01;43.06;101295.34;5111131;28;20393;-42
2022/12/05 05:03:55;;;;;;;;;;;;;;;19.00;42.92;101294.53;5113158;28;19934;-41
2022/12/05 05:06:21;;;;;;;;;;;;;;;18.99;42.93;101292.84;5093165;28;19967;-41
2022/12/05 05:08:49;;;;;;;;;;;;;;;19.00;43.09;101297.28;5115789;28;19976;-43
2022/12/05 05:13:52;;;;;;;;;;;;;;;19.00;43.13;101300.03;5166603;27;19925;-44
2022/12/05 05:16:20;;;;;;;;;;;;;;;19.00;43.13;101302.81;5149415;27;19922;-42
2022/12/05 05:18:46;;;;;;;;;;;;;;;19.01;43.16;101300.88;5165786;27;19931;-43
2022/12/05 05:24:02;;;;;;;;;;;;;;;18.99;42.97;101298.34;5174956;27;19925;-41
2022/12/05 05:26:28;;;;;;;;;;;;;;;19.01;43.21;101306.38;5151394;27;19927;-41
2022/12/05 05:28:53;;;;;;;;;;;;;;;19.00;43.07;101305.56;5156152;27;20412;-42
2022/12/05 05:31:19;;;;;;;;;;;;;;;19.00;42.88;101311.09;5155304;27;19923;-44
2022/12/05 05:33:53;;;;;;;;;;;;;;;19.00;43.15;101311.09;5138492;27;20386;-44
2022/12/05 05:36:19;;;;;;;;;;;;;;;18.99;42.99;101309.41;5160480;27;19931;-42
2022/12/05 05:38:46;;;;;;;;;;;;;;;19.00;42.84;101316.59;5159289;27;19930;-41
2022/12/05 05:41:14;;;;;;;;;;;;;;;19.00;43.21;101313.00;5156439;27;19965;-41
2022/12/05 05:43:40;;;;;;;;;;;;;;;19.00;43.01;101316.59;5155344;27;20010;-42
2022/12/05 05:46:05;;;;;;;;;;;;;;;19.00;42.91;101313.00;5159027;27;19933;-43
2022/12/05 05:48:31;;;;;;;;;;;;;;;19.01;42.97;101320.19;5160489;27;19931;-42
2022/12/05 05:50:58;;;;;;;;;;;;;;;19.00;42.82;101319.38;5152131;27;19924;-42
2022/12/05 05:53:23;;;;;;;;;;;;;;;19.00;43.13;101321.28;5153608;27;20374;-42
2022/12/05 05:55:49;;;;;;;;;;;;;;;19.00;42.91;101319.38;5138321;27;19931;-42
2022/12/05 05:58:14;;;;;;;;;;;;;;;19.00;42.89;101310.25;5158673;27;19931;-42
2022/12/05 06:00:40;;;;;;;;;;;;;;;18.99;42.87;101314.09;5157010;27;19923;-41
2022/12/05 06:03:06;;;;;;;;;;;;;;;18.99;42.96;101317.69;5146761;27;19923;-43
2022/12/05 06:05:31;;;;;;;;;;;;;;;18.98;42.80;101324.31;5137987;27;19928;-43
2022/12/05 06:07:57;;;;;;;;;;;;;;;19.00;42.99;101326.81;5128639;27;19954;-44
2022/12/05 06:10:23;;;;;;;;;;;;;;;19.00;42.81;101326.81;5128277;27;19934;-41
2022/12/05 06:12:48;;;;;;;;;;;;;;;19.00;42.93;101324.06;5131573;27;19928;-44
2022/12/05 06:15:14;;;;;;;;;;;;;;;19.00;43.08;101326.81;5134274;27;20383;-41
2022/12/05 06:17:39;;;;;;;;;;;;;;;18.99;43.09;101325.13;5137018;27;19969;-41
2022/12/05 06:20:05;;;;;;;;;;;;;;;19.02;43.11;101330.13;5133350;27;19950;-42
2022/12/05 06:22:31;;;;;;;;;;;;;;;19.00;42.91;101330.41;5138006;27;19977;-42
2022/12/05 06:24:57;;;;;;;;;;;;;;;19.00;42.81;101332.34;5141965;27;19984;-41
2022/12/05 06:27:22;;;;;;;;;;;;;;;19.00;42.85;101335.09;5115726;27;19927;-43
2022/12/05 06:29:48;;;;;;;;;;;;;;;19.00;42.96;101332.34;5131004;27;20288;-42
2022/12/05 06:32:13;;;;;;;;;;;;;;;19.00;42.87;101333.16;5131098;27;20082;-46
2022/12/05 06:34:39;;;;;;;;;;;;;;;18.98;42.75;101335.34;5126645;27;19923;-44
2022/12/05 06:37:04;;;;;;;;;;;;;;;18.98;42.82;101335.34;5119582;28;19923;-43
2022/12/05 06:39:30;;;;;;;;;;;;;;;18.99;42.80;101336.19;5121086;28;19923;-44
2022/12/05 06:41:55;;;;;;;;;;;;;;;18.99;42.84;101344.44;5111975;28;19928;-43
2022/12/05 06:44:23;;;;;;;;;;;;;;;18.98;42.79;101342.81;5116432;28;19930;-47
2022/12/05 06:46:49;;;;;;;;;;;;;;;18.98;42.77;101343.63;5102318;28;19963;-46
2022/12/05 06:49:14;;;;;;;;;;;;;;;18.98;42.87;101349.16;5119861;28;19930;-45
2022/12/05 06:51:40;;;;;;;;;;;;;;;18.98;42.85;101351.91;5114725;28;19928;-44
2022/12/05 06:54:05;;;;;;;;;;;;;;;18.98;42.73;101349.16;5114673;28;19938;-45
2022/12/05 06:56:31;;;;;;;;;;;;;;;18.97;43.03;101350.25;5113734;28;20316;-46
2022/12/05 06:58:56;;;;;;;;;;;;;;;18.98;42.75;101354.66;5107974;28;19931;-44
2022/12/05 07:01:37;;;;;;;;;;;;;;;18.94;44.33;101361.00;5094434;28;19942;-56
2022/12/05 07:04:05;;;;;;;;;;;;;;;18.89;45.67;101363.75;5090055;28;19927;-43
2022/12/05 07:06:31;;;;;;;;;;;;;;;18.99;45.60;101366.53;5089867;28;19963;-43
2022/12/05 07:08:57;;;;;;;;;;;;;;;19.02;45.22;101366.84;5090912;28;19963;-44
2022/12/05 07:11:22;;;;;;;;;;;;;;;19.00;45.03;101366.28;5095641;28;19934;-43
2022/12/05 07:13:48;;;;;;;;;;;;;;;19.01;44.81;101365.19;5090333;28;19942;-44
2022/12/05 07:16:13;;;;;;;;;;;;;;;19.03;44.70;101371.25;5107589;28;20355;-45
2022/12/05 07:18:39;;;;;;;;;;;;;;;19.03;44.53;101374.00;5085123;28;21433;-47
2022/12/05 07:21:06;;;;;;;;;;;;;;;19.03;44.45;101373.19;5106019;28;19930;-44
2022/12/05 07:23:40;;;;;;;;;;;;;;;19.04;44.71;101383.97;5114876;28;19924;-44
2022/12/05 07:26:06;;;;;;;;;;;;;;;19.05;44.31;101385.63;5088905;28;20426;-48
2022/12/05 07:28:32;;;;;;;;;;;;;;;19.05;44.43;101385.63;5091872;28;19954;-48
2022/12/05 07:31:01;;;;;;;;;;;;;;;19.05;44.13;101388.38;5111517;28;20295;-44
2022/12/05 07:33:27;;;;;;;;;;;;;;;19.06;44.23;101394.72;5095475;28;20046;-44
2022/12/05 07:35:57;;;;;;;;;;;;;;;19.06;44.42;101391.97;5107222;28;19935;-47
2022/12/05 07:38:23;;;;;;;;;;;;;;;19.06;44.02;101391.97;5118276;28;19934;-44
2022/12/05 07:40:48;;;;;;;;;;;;;;;19.08;43.98;101383.41;5102603;28;20294;-45
2022/12/05 07:43:14;;;;;;;;;;;;;;;19.08;44.21;101394.44;5091725;28;19958;-44
2022/12/05 07:45:39;;;;;;;;;;;;;;;19.08;44.09;101389.75;5102797;28;19924;-44
2022/12/05 07:48:05;;;;;;;;;;;;;;;19.09;43.97;101388.69;5107626;28;19968;-50
2022/12/05 07:50:31;;;;;;;;;;;;;;;19.09;44.06;101401.66;5113980;28;19928;-47
2022/12/05 07:52:56;;;;;;;;;;;;;;;19.09;43.85;101402.50;5100139;28;19932;-43
2022/12/05 07:55:22;;;;;;;;;;;;;;;19.12;43.51;101403.88;5102422;28;19924;-44
2022/12/05 07:57:47;;;;;;;;;;;;;;;19.11;42.66;101396.69;5102673;28;19932;-44
2022/12/05 08:00:13;;;;;;;;;;;;;;;19.12;43.68;101398.34;5088514;28;19932;-45
2022/12/05 08:02:39;;;;;;;;;;;;;;;19.12;42.39;101401.09;5094316;28;20508;-47
2022/12/05 08:05:06;;;;;;;;;;;;;;;19.11;42.65;101405.78;5074971;28;21109;-45
2022/12/05 08:07:32;;;;;;;;;;;;;;;19.12;42.00;101401.94;5089748;28;19923;-49
2022/12/05 08:09:57;;;;;;;;;;;;;;;19.13;42.80;101409.13;5098785;28;19973;-43
2022/12/05 08:12:23;;;;;;;;;;;;;;;19.12;43.19;101412.16;5096146;28;20022;-45
2022/12/05 08:14:49;;;;;;;;;;;;;;;19.14;43.35;101407.19;5096938;28;20420;-46
2022/12/05 08:17:14;;;;;;;;;;;;;;;19.13;43.34;101419.31;5098072;28;20295;-43
2022/12/05 08:19:40;;;;;;;;;;;;;;;19.13;43.31;101408.28;5094588;28;19927;-43
2022/12/05 08:22:06;;;;;;;;;;;;;;;19.13;42.62;101422.09;5096200;28;20100;-44
2022/12/05 08:24:31;;;;;;;;;;;;;;;19.13;42.88;101422.94;5099621;28;20329;-43
2022/12/05 08:26:57;;;;;;;;;;;;;;;19.12;43.52;101429.53;5098744;28;19928;-44
2022/12/05 08:29:22;;;;;;;;;;;;;;;19.11;43.47;101433.41;5106200;28;20296;-43
2022/12/05 08:31:49;;;;;;;;;;;;;;;19.10;43.43;101434.50;5102073;28;19924;-44
2022/12/05 08:34:15;;;;;;;;;;;;;;;19.10;43.62;101439.19;5105225;28;20012;-46
2022/12/05 08:36:40;;;;;;;;;;;;;;;19.10;43.59;101442.78;5105821;28;19951;-45
2022/12/05 08:39:06;;;;;;;;;;;;;;;19.09;43.38;101441.13;5087200;28;19928;-44
2022/12/05 08:41:32;;;;;;;;;;;;;;;19.09;43.38;101451.34;5088864;28;19947;-46
2022/12/05 08:43:59;;;;;;;;;;;;;;;19.09;43.61;101451.34;5081890;28;20571;-43
2022/12/05 08:46:24;;;;;;;;;;;;;;;19.09;43.32;101446.66;5083743;28;20418;-46
2022/12/05 08:48:50;;;;;;;;;;;;;;;19.08;43.20;101447.72;5080326;28;19923;-47
2022/12/05 08:51:16;;;;;;;;;;;;;;;19.08;43.35;101447.72;5104462;28;19938;-44
2022/12/05 08:53:41;;;;;;;;;;;;;;;19.07;43.28;101446.06;5101734;28;19923;-47
2022/12/05 08:56:10;;;;;;;;;;;;;;;19.09;43.23;101452.19;5098047;28;20083;-45
2022/12/05 08:58:36;;;;;;;;;;;;;;;19.09;43.41;101452.19;5100232;28;20427;-44
2022/12/05 09:01:05;;;;;;;;;;;;;;;19.09;43.21;101460.47;5095874;28;19981;-43
2022/12/05 09:03:31;;;;;;;;;;;;;;;19.09;43.23;101457.69;5097990;28;20016;-46
2022/12/05 09:06:04;;;;;;;;;;;;;;;19.09;43.41;101451.34;5098207;28;19923;-44
2022/12/05 09:08:30;;;;;;;;;;;;;;;19.05;42.54;101454.63;5093684;28;20546;-44
2022/12/05 09:10:55;;;;;;;;;;;;;;;19.10;43.14;101455.78;5104265;28;19928;-45
2022/12/05 09:13:21;;;;;;;;;;;;;;;19.11;43.12;101449.97;5105542;28;19934;-44
2022/12/05 09:15:46;;;;;;;;;;;;;;;19.10;41.95;101453.84;5086716;28;20306;-43
2022/12/05 09:18:14;;;;;;;;;;;;;;;19.10;41.99;101464.06;5095671;28;19938;-44
2022/12/05 09:20:40;;;;;;;;;;;;;;;19.10;41.87;101461.28;5096008;28;19985;-44
2022/12/05 09:23:05;;;;;;;;;;;;;;;19.11;42.92;101460.19;5101418;28;20022;-45
2022/12/05 09:25:31;;;;;;;;;;;;;;;19.12;42.82;101473.72;5079345;28;19924;-47
2022/12/05 09:27:57;;;;;;;;;;;;;;;19.14;42.58;101473.47;5106220;28;20372;-48
2022/12/05 09:30:22;;;;;;;;;;;;;;;18.98;42.62;101473.34;5101101;28;19927;-47
2022/12/05 09:32:48;;;;;;;;;;;;;;;19.07;42.88;101473.69;5093384;28;19931;-44
2022/12/05 09:35:13;;;;;;;;;;;;;;;19.10;42.00;101472.34;5090007;28;19955;-43
2022/12/05 09:37:39;;;;;;;;;;;;;;;19.10;41.70;101475.09;5084159;28;19944;-44
2022/12/05 09:40:06;;;;;;;;;;;;;;;19.12;41.67;101470.94;5097897;28;19932;-44
2022/12/05 09:45:18;;;;;;;;;;;;;;;19.15;42.09;101478.72;5145087;27;19976;-41
2022/12/05 09:47:45;;;;;;;;;;;;;;;19.15;42.63;101475.94;5148608;27;19966;-41
2022/12/05 09:50:27;;;;;;;;;;;;;;;19.15;42.84;101475.13;5131611;27;19969;-41
2022/12/05 09:53:10;;;;;;;;;;;;;;;19.16;42.85;101472.06;5135100;27;19923;-41
2022/12/05 09:55:52;;;;;;;;;;;;;;;19.16;42.62;101474.00;5156663;27;19969;-44
2022/12/05 09:58:20;;;;;;;;;;;;;;;19.16;41.83;101479.53;5157015;27;19974;-41
2022/12/05 10:00:46;;;;;;;;;;;;;;;19.19;42.36;101474.31;5135138;27;20014;-40
2022/12/05 10:03:32;;;;;;;;;;;;;;;19.19;42.69;101474.31;5144025;27;20010;-42
2022/12/05 10:06:18;;;;;;;;;;;;;;;19.18;42.77;101469.91;5123808;27;19931;-41
2022/12/05 10:09:03;;;;;;;;;;;;;;;19.18;42.71;101471.84;5118028;27;20025;-41
2022/12/05 10:11:33;;;;;;;;;;;;;;;19.19;42.93;101466.03;5119088;27;20023;-41
2022/12/05 10:14:08;;;;;;;;;;;;;;;19.18;42.60;101469.06;5117754;27;20387;-41
2022/12/05 10:16:38;;;;;;;;;;;;;;;19.19;42.50;101470.72;5134443;27;19970;-41
2022/12/05 10:19:05;;;;;;;;;;;;;;;19.18;42.81;101467.13;5124446;27;20362;-42
2022/12/05 10:21:33;;;;;;;;;;;;;;;19.19;42.93;101462.44;5135956;27;20069;-43
2022/12/05 10:23:59;;;;;;;;;;;;;;;19.19;42.75;101468.78;5139032;27;20013;-42
2022/12/05 10:26:27;;;;;;;;;;;;;;;19.20;42.73;101475.13;5119001;27;20427;-43
2022/12/05 10:28:56;;;;;;;;;;;;;;;19.21;42.50;101468.50;5119371;27;19974;-40
2022/12/05 10:31:23;;;;;;;;;;;;;;;19.21;42.54;101476.78;5111853;27;20010;-42
2022/12/05 10:33:51;;;;;;;;;;;;;;;19.19;43.02;101471.56;5134162;27;20383;-42
2022/12/05 10:36:17;;;;;;;;;;;;;;;19.23;42.33;101461.63;5129676;27;20007;-41
2022/12/05 10:38:42;;;;;;;;;;;;;;;19.30;42.77;101470.53;5124547;27;19931;-42
2022/12/05 10:41:09;;;;;;;;;;;;;;;19.29;42.27;101468.00;5124991;27;20375;-43
2022/12/05 10:43:36;;;;;;;;;;;;;;;19.29;42.39;101477.13;5128054;27;20426;-44
2022/12/05 10:46:01;;;;;;;;;;;;;;;19.25;41.84;101467.72;5127148;27;19997;-41
2022/12/05 10:48:27;;;;;;;;;;;;;;;19.20;41.88;101473.22;5124651;27;20371;-41
2022/12/05 10:50:54;;;;;;;;;;;;;;;19.18;40.99;101475.41;5136551;27;19931;-41
2022/12/05 10:53:21;;;;;;;;;;;;;;;19.19;41.89;101471.56;5133342;27;19978;-41
2022/12/05 10:55:47;;;;;;;;;;;;;;;19.21;42.54;101474.91;5120338;27;20017;-44
2022/12/05 10:58:32;;;;;;;;;;;;;;;19.21;42.16;101477.66;5114465;27;19928;-42
2022/12/05 11:01:06;;;;;;;;;;;;;;;19.24;42.37;101477.09;5120750;27;19946;-44
2022/12/05 11:03:34;;;;;;;;;;;;;;;19.23;42.15;101480.97;5098084;27;20026;-41
2022/12/05 11:06:00;;;;;;;;;;;;;;;19.26;42.48;101490.66;5111145;27;20030;-43
2022/12/05 11:08:27;;;;;;;;;;;;;;;19.25;42.46;101476.00;5100631;27;19966;-41
2022/12/05 11:11:28;;;;;;;;;;;;;;;19.26;42.48;101476.84;5093829;27;19923;-43
2022/12/05 11:13:56;;;;;;;;;;;;;;;19.26;42.62;101476.84;5122227;27;19959;-40
2022/12/05 11:16:22;;;;;;;;;;;;;;;19.25;42.80;101467.72;5098865;28;19932;-43
2022/12/05 11:18:48;;;;;;;;;;;;;;;19.27;42.51;101475.75;5122609;27;19938;-44
2022/12/05 11:21:16;;;;;;;;;;;;;;;19.27;42.59;101475.75;5126310;27;19931;-43
2022/12/05 11:23:42;;;;;;;;;;;;;;;19.27;42.37;101475.75;5120951;27;20022;-41
2022/12/05 11:26:16;;;;;;;;;;;;;;;19.27;42.73;101472.97;5126375;27;19939;-41
2022/12/05 11:28:42;;;;;;;;;;;;;;;19.27;42.78;101475.75;5126481;27;19928;-42
2022/12/05 11:31:14;;;;;;;;;;;;;;;19.26;42.37;101476.84;5126350;27;20014;-45
2022/12/05 11:33:39;;;;;;;;;;;;;;;19.26;42.56;101480.44;5128001;27;19924;-41
2022/12/05 11:36:10;;;;;;;;;;;;;;;19.27;42.75;101470.22;5106794;27;19928;-44
2022/12/05 11:38:36;;;;;;;;;;;;;;;19.27;42.54;101482.09;5117026;27;19959;-42
2022/12/05 11:43:58;;;;;;;;;;;;;;;19.21;41.53;101474.03;5150689;27;19937;-57
2022/12/05 11:46:44;;;;;;;;;;;;;;;19.26;42.52;101465.81;5132624;27;20006;-43
2022/12/05 11:49:30;;;;;;;;;;;;;;;19.29;42.45;101476.28;5126562;27;19939;-42
2022/12/05 11:52:15;;;;;;;;;;;;;;;19.28;42.49;101467.19;5126983;27;20046;-41
2022/12/05 11:57:51;;;;;;;;;;;;;;;19.27;42.47;101473.81;5147551;27;19937;-41
2022/12/05 12:00:22;;;;;;;;;;;;;;;19.27;42.85;101470.22;5127822;27;20119;-42
2022/12/05 12:03:01;;;;;;;;;;;;;;;19.28;42.80;101461.66;5127723;27;20073;-41
2022/12/05 12:05:34;;;;;;;;;;;;;;;19.28;42.74;101463.59;5127758;27;19931;-41
2022/12/05 12:08:06;;;;;;;;;;;;;;;19.27;42.52;101464.69;5128158;27;19923;-41
2022/12/05 12:10:51;;;;;;;;;;;;;;;19.27;42.78;101462.75;5125062;27;19928;-41
2022/12/05 12:13:37;;;;;;;;;;;;;;;19.26;42.24;101466.63;5111678;27;20374;-43
2022/12/05 12:16:06;;;;;;;;;;;;;;;19.27;42.83;101465.53;5116964;27;19969;-41
2022/12/05 12:18:54;;;;;;;;;;;;;;;19.27;42.85;101462.75;5110394;27;19982;-42
2022/12/05 12:21:24;;;;;;;;;;;;;;;19.29;43.06;101462.47;5111341;27;20821;-40
2022/12/05 12:24:10;;;;;;;;;;;;;;;19.28;43.10;101461.66;5137779;27;19959;-41
2022/12/05 12:26:56;;;;;;;;;;;;;;;19.28;42.69;101471.88;5112180;27;19992;-41
2022/12/05 12:29:27;;;;;;;;;;;;;;;19.28;42.64;101472.69;5113661;27;19997;-41
2022/12/05 12:32:12;;;;;;;;;;;;;;;19.29;42.46;101470.75;5125707;27;20041;-43
2022/12/05 12:34:57;;;;;;;;;;;;;;;19.27;42.88;101467.47;5116236;27;19929;-42
2022/12/05 12:37:34;;;;;;;;;;;;;;;19.29;42.43;101466.06;5109768;27;19967;-42
2022/12/05 12:40:12;;;;;;;;;;;;;;;19.30;42.67;101466.94;5106040;27;19969;-42
2022/12/05 12:42:41;;;;;;;;;;;;;;;19.30;43.03;101461.41;5120790;27;20034;-41
2022/12/05 12:45:26;;;;;;;;;;;;;;;19.30;42.68;101462.22;5125934;27;19970;-44
2022/12/05 12:48:12;;;;;;;;;;;;;;;19.30;42.86;101467.75;5115101;27;19934;-47
2022/12/05 12:50:39;;;;;;;;;;;;;;;19.31;42.70;101468.59;5112205;27;20327;-41
2022/12/05 12:53:29;;;;;;;;;;;;;;;19.30;42.85;101462.22;5128852;27;19980;-42
2022/12/05 12:56:14;;;;;;;;;;;;;;;19.30;43.13;101462.22;5119289;27;20170;-42
2022/12/05 12:58:43;;;;;;;;;;;;;;;19.29;42.73;101468.84;5116364;27;19971;-40
2022/12/05 13:01:16;;;;;;;;;;;;;;;19.31;42.77;101465.81;5123886;27;20454;-42
2022/12/05 13:03:51;;;;;;;;;;;;;;;19.32;42.98;101467.47;5137418;27;19938;-41
2022/12/05 13:06:20;;;;;;;;;;;;;;;19.30;43.20;101466.94;5118291;27;19923;-43